Time;durP1;ratioP1;P1;durP2;ratioP2;P2;SDS_P1;SDS_P2;PMS_P1;PMS_P2;Temp;Humidity;BMP_temperature;BMP_pressure;BME280_temperature;BME280_humidity;BME280_pressure;Samples;Min_cycle;Max_cycle;Signal;HPM_P1;HPM_P2
2023/01/06 00:01:28;;;;;;;9.40;5.00;;;;;;;6.78;84.45;98040.40;24546;1334;3056414;-65
2023/01/06 00:03:58;;;;;;;9.60;4.30;;;;;;;6.51;85.36;98038.55;24696;1324;3026503;-60
2023/01/06 00:06:28;;;;;;;7.30;4.20;;;;;;;6.31;85.65;98043.35;24635;1334;3050500;-62
2023/01/06 00:09:01;;;;;;;9.30;5.40;;;;;;;6.17;85.94;98046.98;24673;1328;3025034;-62
2023/01/06 00:11:31;;;;;;;9.20;5.20;;;;;;;6.00;86.68;98041.99;24616;1317;3052386;-62
2023/01/06 00:14:00;;;;;;;13.40;6.20;;;;;;;5.96;87.09;98048.32;24538;1321;3026734;-62
2023/01/06 00:16:29;;;;;;;7.10;3.70;;;;;;;5.96;86.89;98045.19;24649;1327;3057837;-63
2023/01/06 00:18:59;;;;;;;9.70;4.10;;;;;;;6.88;85.18;98050.86;24640;1324;3028416;-63
2023/01/06 00:21:28;;;;;;;8.70;4.90;;;;;;;7.23;82.67;98055.41;24613;1332;3049993;-62
2023/01/06 00:23:57;;;;;;;10.50;4.60;;;;;;;6.84;82.90;98053.92;24655;1326;3027711;-63
2023/01/06 00:26:27;;;;;;;7.50;4.20;;;;;;;6.62;84.41;98054.35;24608;1334;3068917;-63
2023/01/06 00:28:56;;;;;;;9.50;5.10;;;;;;;6.69;83.49;98049.69;24653;1327;3028416;-63
2023/01/06 00:31:28;;;;;;;7.80;3.60;;;;;;;6.20;85.63;98048.09;24578;1328;3050693;-62
2023/01/06 00:33:57;;;;;;;8.70;4.50;;;;;;;6.19;85.37;98053.52;24609;1328;3026009;-62
2023/01/06 00:36:26;;;;;;;4.80;3.10;;;;;;;5.94;87.20;98048.14;24596;1326;3026522;-63
2023/01/06 00:38:55;;;;;;;4.70;3.30;;;;;;;6.28;87.16;98050.80;24639;1333;3047977;-61
2023/01/06 00:44:14;;;;;;;7.10;4.30;;;;;;;6.66;84.88;98054.22;24578;1328;3052847;-62
2023/01/06 00:46:43;;;;;;;7.90;4.00;;;;;;;6.36;85.52;98046.80;24582;1324;3026104;-62
2023/01/06 00:49:13;;;;;;;8.40;4.10;;;;;;;6.28;85.77;98054.31;24537;1323;3052507;-63
2023/01/06 00:51:43;;;;;;;7.80;4.20;;;;;;;6.36;85.52;98054.17;24575;1321;3027885;-62
2023/01/06 00:54:13;;;;;;;9.50;5.10;;;;;;;6.13;86.01;98046.72;24622;1326;3054510;-63
2023/01/06 00:56:47;;;;;;;4.30;3.30;;;;;;;5.85;88.55;98046.80;24600;1334;3025869;-62
2023/01/06 00:59:21;;;;;;;5.90;3.70;;;;;;;6.75;85.88;98049.48;24588;1328;3051311;-64
2023/01/06 01:01:52;;;;;;;5.80;3.50;;;;;;;7.10;83.83;98046.17;24575;1327;3028710;-64
2023/01/06 01:04:22;;;;;;;6.30;4.10;;;;;;;6.93;83.38;98039.89;24674;1320;3026684;-63
2023/01/06 01:06:52;;;;;;;10.20;4.90;;;;;;;6.70;84.32;98039.21;24592;1328;3026742;-61
2023/01/06 01:09:26;;;;;;;11.30;5.30;;;;;;;6.28;85.70;98039.02;24678;1327;3028502;-66
2023/01/06 01:12:08;;;;;;;8.60;4.10;;;;;;;6.07;86.90;98038.46;24607;1328;3052665;-62
2023/01/06 01:14:47;;;;;;;8.00;3.80;;;;;;;6.15;86.14;98036.72;24634;1327;3053211;-61
2023/01/06 01:17:18;;;;;;;5.30;3.20;;;;;;;6.14;86.72;98032.75;24590;1329;3051314;-63
2023/01/06 01:19:49;;;;;;;5.80;3.30;;;;;;;6.77;86.13;98038.38;24567;1327;3026620;-63
2023/01/06 01:22:18;;;;;;;9.00;4.40;;;;;;;7.26;83.12;98048.27;24576;1328;3028150;-62
2023/01/06 01:24:47;;;;;;;11.90;4.70;;;;;;;7.18;83.07;98043.37;24609;1324;3026466;-63
2023/01/06 01:27:17;;;;;;;7.30;4.70;;;;;;;7.00;83.35;98043.95;24544;1320;3051905;-61
2023/01/06 01:29:47;;;;;;;5.80;4.00;;;;;;;6.60;84.70;98049.39;24585;1321;3025923;-62
2023/01/06 01:32:16;;;;;;;6.60;3.90;;;;;;;6.50;84.77;98052.33;24562;1317;3028779;-62
2023/01/06 01:34:45;;;;;;;7.20;3.70;;;;;;;6.34;85.54;98048.67;24608;1328;3052256;-62
2023/01/06 01:37:15;;;;;;;5.40;2.80;;;;;;;6.15;86.75;98045.63;24603;1318;3030664;-61
2023/01/06 01:39:44;;;;;;;9.00;3.40;;;;;;;6.79;86.00;98047.96;24558;1316;3051584;-62
2023/01/06 01:42:17;;;;;;;6.20;3.70;;;;;;;7.21;83.76;98045.10;24565;1328;3027034;-63
2023/01/06 01:44:57;;;;;;;7.70;3.80;;;;;;;7.17;84.24;98044.52;24620;1324;3026735;-62
2023/01/06 01:47:40;;;;;;;5.40;3.10;;;;;;;7.23;82.77;98046.86;24647;1328;3068807;-62
2023/01/06 01:50:21;;;;;;;6.40;4.00;;;;;;;6.71;84.47;98055.66;24566;1328;3050657;-62
2023/01/06 01:52:54;;;;;;;7.50;3.70;;;;;;;6.63;84.54;98057.55;24619;1328;3057176;-64
2023/01/06 01:55:23;;;;;;;7.40;4.30;;;;;;;6.34;85.72;98053.58;24621;1328;3028536;-63
2023/01/06 01:58:05;;;;;;;4.50;2.70;;;;;;;6.26;86.86;98051.98;24546;1331;3027785;-64
2023/01/06 02:00:35;;;;;;;4.90;3.10;;;;;;;6.89;85.94;98058.80;24616;1317;3052157;-63
2023/01/06 02:03:04;;;;;;;3.70;2.60;;;;;;;7.44;83.70;98056.96;24564;1319;3025976;-62
2023/01/06 02:05:37;;;;;;;6.50;3.30;;;;;;;7.03;83.95;98051.39;24593;1328;3052960;-63
2023/01/06 02:08:27;;;;;;;7.60;3.30;;;;;;;6.76;84.88;98050.98;24569;1324;3051447;-63
2023/01/06 02:10:56;;;;;;;7.40;3.30;;;;;;;6.57;85.93;98054.83;24602;1328;3052929;-63
2023/01/06 02:13:27;;;;;;;4.90;3.30;;;;;;;6.40;86.45;98057.87;24611;1321;3028923;-64
2023/01/06 02:16:12;;;;;;;6.70;3.70;;;;;;;6.43;86.05;98061.33;24642;1325;3028578;-64
2023/01/06 02:18:51;;;;;;;4.80;2.90;;;;;;;6.32;87.49;98060.28;24592;1328;3050788;-64
2023/01/06 02:21:45;;;;;;;6.60;3.10;;;;;;;7.23;85.41;98064.48;24594;1326;3055777;-65
2023/01/06 02:24:24;;;;;;;5.10;3.10;;;;;;;7.37;83.62;98069.65;24611;1321;3053082;-63
2023/01/06 02:27:06;;;;;;;6.10;3.10;;;;;;;7.19;84.05;98062.87;24618;1334;3055463;-64
2023/01/06 02:29:46;;;;;;;8.60;3.30;;;;;;;7.05;84.15;98070.08;24576;1320;3052004;-64
2023/01/06 02:32:41;;;;;;;5.40;3.00;;;;;;;6.86;84.48;98065.08;24550;1327;3053003;-63
2023/01/06 02:35:39;;;;;;;;;;;;;;;6.55;85.86;98065.60;24566;1334;3049398;-64
2023/01/06 02:38:28;;;;;;;4.30;2.80;;;;;;;6.30;87.34;98064.09;24624;1323;3069097;-64
2023/01/06 02:41:01;;;;;;;3.70;2.20;;;;;;;6.36;87.77;98066.45;24692;1321;3050434;-63
2023/01/06 02:43:51;;;;;;;4.80;2.40;;;;;;;7.16;86.16;98069.48;24609;1327;3056163;-63
2023/01/06 02:46:31;;;;;;;4.70;3.00;;;;;;;7.23;84.44;98070.88;24604;1327;3052814;-64
2023/01/06 02:49:23;;;;;;;6.90;3.40;;;;;;;7.31;84.32;98071.05;24629;1320;3052400;-63
2023/01/06 02:52:05;;;;;;;5.50;3.40;;;;;;;7.18;83.95;98071.48;24508;1320;3051566;-63
2023/01/06 02:54:51;;;;;;;5.90;3.40;;;;;;;6.98;84.47;98069.14;24567;1328;3053142;-62
2023/01/06 02:57:47;;;;;;;5.90;3.30;;;;;;;6.76;85.22;98072.36;24635;1335;3049379;-63
2023/01/06 03:00:32;;;;;;;9.50;3.70;;;;;;;6.62;85.85;98072.77;24472;1318;3069503;-63
2023/01/06 03:03:04;;;;;;;4.40;2.10;;;;;;;6.43;87.27;98069.65;24610;1327;3049931;-63
2023/01/06 03:05:33;;;;;;;6.10;3.50;;;;;;;7.44;84.71;98066.99;24616;1334;3026173;-63
2023/01/06 03:08:09;;;;;;;8.20;3.20;;;;;;;7.86;82.60;98069.52;24660;1328;3026626;-63
2023/01/06 03:10:40;;;;;;;7.40;3.80;;;;;;;7.71;82.17;98066.33;24600;1327;3028950;-63
2023/01/06 03:13:38;;;;;;;11.50;3.50;;;;;;;7.53;82.62;98070.23;24556;1318;3028155;-62
2023/01/06 03:16:07;;;;;;;8.20;4.00;;;;;;;7.25;82.99;98070.09;24603;1328;3052522;-63
2023/01/06 03:18:37;;;;;;;7.60;3.90;;;;;;;6.87;84.25;98068.48;24571;1328;3028031;-62
2023/01/06 03:21:15;;;;;;;7.40;4.50;;;;;;;6.56;86.47;98068.16;24558;1327;3026597;-63
2023/01/06 03:23:46;;;;;;;7.40;4.10;;;;;;;6.50;86.51;98069.77;24666;1327;3049996;-63
2023/01/06 03:26:15;;;;;;;6.40;3.20;;;;;;;6.46;87.12;98072.07;24540;1320;3028819;-62
2023/01/06 03:28:44;;;;;;;4.60;2.50;;;;;;;7.21;85.56;98073.68;24556;1320;3068342;-63
2023/01/06 03:31:31;;;;;;;4.20;2.90;;;;;;;7.67;83.55;98075.88;24588;1326;3028469;-63
2023/01/06 03:34:18;;;;;;;5.90;3.40;;;;;;;7.52;82.65;98084.09;24537;1321;3057107;-63
2023/01/06 03:37:03;;;;;;;4.80;2.90;;;;;;;7.10;84.52;98082.23;24556;1321;3052888;-63
2023/01/06 03:39:42;;;;;;;5.00;3.10;;;;;;;7.02;84.61;98088.25;24565;1324;3053356;-63
2023/01/06 03:45:43;;;;;;;7.00;3.40;;;;;;;6.64;85.73;98091.77;24568;1328;3052809;-63
2023/01/06 03:48:19;;;;;;;5.40;2.70;;;;;;;6.59;86.45;98083.58;24548;1337;3049334;-63
2023/01/06 03:51:19;;;;;;;4.80;2.80;;;;;;;7.25;85.59;98083.17;24578;1328;3069461;-63
2023/01/06 03:54:08;;;;;;;6.60;3.40;;;;;;;7.61;83.75;98086.04;24597;1334;3049987;-63
2023/01/06 03:56:40;;;;;;;6.20;3.20;;;;;;;7.51;83.47;98082.90;24560;1327;3057179;-63
2023/01/06 03:59:13;;;;;;;4.80;3.20;;;;;;;7.43;83.51;98089.09;24605;1321;3026297;-63
2023/01/06 04:01:43;;;;;;;5.60;2.90;;;;;;;7.09;84.44;98088.75;24644;1320;3025757;-63
2023/01/06 04:04:12;;;;;;;6.10;3.10;;;;;;;6.98;84.78;98094.59;24531;1328;3028383;-64
2023/01/06 04:06:41;;;;;;;6.10;4.30;;;;;;;6.79;85.77;98100.89;24603;1328;3052806;-63
2023/01/06 04:09:10;;;;;;;6.00;3.40;;;;;;;6.69;86.65;98102.40;24664;1313;3028051;-63
2023/01/06 04:14:28;;;;;;;6.60;4.30;;;;;;;7.78;83.72;98100.23;24552;1326;3052554;-64
2023/01/06 04:16:57;;;;;;;6.70;5.00;;;;;;;7.68;83.44;98100.39;24628;1328;3027578;-63
2023/01/06 04:19:26;;;;;;;7.50;5.40;;;;;;;7.49;83.95;98101.36;24546;1327;3027924;-63
2023/01/06 04:21:56;;;;;;;7.40;5.40;;;;;;;7.19;84.76;98098.01;24583;1320;3052375;-63
2023/01/06 04:24:27;;;;;;;7.90;5.70;;;;;;;6.94;86.11;98093.97;24669;1326;3027163;-64
2023/01/06 04:26:57;;;;;;;7.90;5.10;;;;;;;6.85;86.10;98096.63;24662;1320;3026358;-63
2023/01/06 04:29:27;;;;;;;6.90;3.80;;;;;;;6.56;88.06;98096.33;24592;1328;3026056;-63
2023/01/06 04:31:57;;;;;;;5.50;3.00;;;;;;;7.19;86.73;98102.41;24672;1326;3026543;-62
2023/01/06 04:34:26;;;;;;;5.80;3.40;;;;;;;7.44;85.52;98099.64;24558;1330;3026652;-63
2023/01/06 04:36:56;;;;;;;7.00;4.40;;;;;;;7.44;84.95;98104.14;24609;1327;3028749;-62
2023/01/06 04:39:25;;;;;;;7.50;4.40;;;;;;;7.11;86.20;98104.48;24593;1320;3028200;-63
2023/01/06 04:41:54;;;;;;;7.10;4.20;;;;;;;6.94;86.96;98107.02;24523;1323;3067888;-61
2023/01/06 04:44:24;;;;;;;7.90;4.30;;;;;;;7.07;85.99;98108.40;24621;1327;3026214;-63
2023/01/06 04:46:53;;;;;;;10.30;4.30;;;;;;;6.72;87.30;98111.41;24655;1327;3048826;-64
2023/01/06 04:49:22;;;;;;;7.00;3.90;;;;;;;6.65;88.14;98115.54;24650;1328;3025783;-63
2023/01/06 04:51:53;;;;;;;4.30;2.60;;;;;;;6.73;87.90;98112.77;24623;1327;3052669;-62
2023/01/06 04:54:22;;;;;;;4.60;2.50;;;;;;;7.11;87.26;98121.00;24676;1320;3028875;-64
2023/01/06 04:56:51;;;;;;;5.80;3.00;;;;;;;8.10;84.26;98121.77;24595;1327;3051060;-63
2023/01/06 04:59:22;;;;;;;3.70;2.80;;;;;;;7.92;82.99;98124.70;24581;1329;3027926;-63
2023/01/06 05:03:17;;;;;;;6.50;3.50;;;;;;;7.70;83.55;98129.89;30811;1331;3013075;-62
2023/01/06 05:05:46;;;;;;;6.20;3.80;;;;;;;7.51;83.36;98133.08;24385;1344;3028241;-62
2023/01/06 05:08:16;;;;;;;6.10;3.50;;;;;;;7.10;84.89;98132.95;24399;1341;3025773;-62
2023/01/06 05:10:45;;;;;;;9.30;4.40;;;;;;;6.96;86.11;98137.16;24431;1333;3028191;-62
2023/01/06 05:13:14;;;;;;;5.00;2.90;;;;;;;6.98;85.66;98135.64;24353;1336;3068600;-61
2023/01/06 05:15:44;;;;;;;5.30;2.80;;;;;;;7.39;85.95;98141.05;23730;1344;4491193;-64
2023/01/06 05:18:13;;;;;;;8.40;4.00;;;;;;;8.05;82.83;98137.70;24470;1337;3048800;-63
2023/01/06 05:20:42;;;;;;;7.20;3.80;;;;;;;7.65;83.51;98144.69;24408;1335;3028834;-65
2023/01/06 05:23:12;;;;;;;8.10;4.70;;;;;;;7.64;83.73;98144.57;24494;1337;3052099;-65
2023/01/06 05:25:45;;;;;;;7.50;5.20;;;;;;;7.44;83.91;98140.55;24495;1328;3049826;-64
2023/01/06 05:28:14;;;;;;;9.50;5.90;;;;;;;7.32;83.92;98146.56;24421;1344;3025373;-62
2023/01/06 05:30:43;;;;;;;9.90;5.60;;;;;;;6.92;86.13;98149.42;24459;1320;3051437;-64
2023/01/06 05:33:12;;;;;;;9.30;5.90;;;;;;;6.75;87.10;98155.79;24417;1329;3026360;-62
2023/01/06 05:35:41;;;;;;;6.50;3.40;;;;;;;6.61;88.78;98157.20;24439;1327;3028774;-63
2023/01/06 05:38:10;;;;;;;5.70;3.50;;;;;;;7.12;87.93;98162.56;24450;1342;3052074;-64
2023/01/06 05:40:39;;;;;;;6.80;3.50;;;;;;;7.54;85.22;98156.75;24556;1326;3026228;-64
2023/01/06 05:43:08;;;;;;;7.20;3.30;;;;;;;7.39;85.52;98161.45;24575;1325;3049007;-63
2023/01/06 05:45:37;;;;;;;5.40;3.80;;;;;;;7.15;86.33;98168.81;24492;1334;3025015;-64
2023/01/06 05:48:07;;;;;;;7.50;3.90;;;;;;;6.88;87.47;98170.59;24521;1327;3026087;-64
2023/01/06 05:50:36;;;;;;;6.40;3.80;;;;;;;6.89;87.72;98167.77;24489;1330;3049976;-63
2023/01/06 05:53:05;;;;;;;7.30;4.40;;;;;;;6.62;88.89;98173.17;24500;1336;3026081;-65
2023/01/06 05:55:37;;;;;;;7.50;4.20;;;;;;;6.56;89.39;98177.73;24555;1344;3053311;-67
2023/01/06 05:58:07;;;;;;;3.70;2.60;;;;;;;6.62;89.46;98179.63;24527;1335;3025541;-65
2023/01/06 06:00:35;;;;;;;4.70;2.80;;;;;;;7.13;88.85;98181.14;24445;1327;3025734;-65
2023/01/06 06:03:04;;;;;;;7.00;3.50;;;;;;;7.64;85.96;98185.67;24578;1332;3051971;-65
2023/01/06 06:05:34;;;;;;;7.70;3.80;;;;;;;7.52;85.90;98191.09;24542;1336;3026417;-66
2023/01/06 06:08:03;;;;;;;7.20;4.30;;;;;;;7.39;86.16;98191.39;24538;1325;3027071;-67
2023/01/06 06:10:33;;;;;;;7.50;4.50;;;;;;;7.16;86.81;98197.45;24491;1335;3053804;-64
2023/01/06 06:13:03;;;;;;;9.30;4.40;;;;;;;7.02;87.48;98197.17;24514;1334;3026012;-66
2023/01/06 06:15:32;;;;;;;8.30;4.70;;;;;;;6.85;87.96;98202.66;24527;1337;3028851;-67
2023/01/06 06:18:01;;;;;;;5.20;2.70;;;;;;;6.68;89.33;98206.17;24467;1336;3025855;-66
2023/01/06 06:20:30;;;;;;;5.20;3.20;;;;;;;7.42;87.88;98210.38;24511;1338;3050156;-66
2023/01/06 06:22:59;;;;;;;7.10;3.60;;;;;;;7.50;85.88;98211.08;24482;1336;3025801;-64
2023/01/06 06:25:28;;;;;;;5.50;3.50;;;;;;;7.54;86.15;98210.59;24586;1327;3053074;-67
2023/01/06 06:27:58;;;;;;;8.20;4.40;;;;;;;7.61;85.45;98215.91;24449;1337;3027504;-65
2023/01/06 06:30:27;;;;;;;5.70;3.90;;;;;;;7.18;86.92;98222.80;24568;1333;3052082;-66
2023/01/06 06:32:55;;;;;;;8.30;4.50;;;;;;;7.13;87.31;98224.19;24521;1327;3025952;-66
2023/01/06 06:35:24;;;;;;;7.50;4.70;;;;;;;7.05;87.68;98229.23;24579;1326;3056496;-65
2023/01/06 06:37:55;;;;;;;9.90;5.40;;;;;;;6.75;88.81;98231.52;24506;1327;3026624;-65
2023/01/06 06:40:24;;;;;;;6.40;3.20;;;;;;;6.68;89.93;98235.80;24554;1335;3027172;-64
2023/01/06 06:42:53;;;;;;;7.10;3.30;;;;;;;7.15;89.14;98232.20;24551;1327;3028553;-65
2023/01/06 06:45:22;;;;;;;7.30;3.90;;;;;;;7.71;86.46;98237.36;24527;1337;3052730;-65
2023/01/06 06:47:54;;;;;;;8.20;4.00;;;;;;;7.75;85.51;98237.60;24488;1327;3024765;-67
2023/01/06 06:50:23;;;;;;;8.10;4.40;;;;;;;7.51;86.10;98242.02;24541;1330;3056560;-65
2023/01/06 06:52:53;;;;;;;8.70;4.00;;;;;;;7.41;86.24;98243.16;24549;1336;3029813;-65
2023/01/06 06:55:23;;;;;;;8.30;4.40;;;;;;;7.11;87.22;98246.23;24565;1336;3049454;-66
2023/01/06 06:57:52;;;;;;;8.70;5.00;;;;;;;7.02;88.11;98250.26;24516;1322;3026599;-65
2023/01/06 07:00:21;;;;;;;5.70;3.20;;;;;;;6.91;88.47;98255.02;24439;1322;3068821;-63
2023/01/06 07:02:50;;;;;;;5.30;3.20;;;;;;;7.36;87.59;98253.45;24526;1337;3028355;-65
2023/01/06 07:05:19;;;;;;;7.20;4.10;;;;;;;7.56;86.49;98257.71;24545;1327;3048690;-66
2023/01/06 07:07:48;;;;;;;9.00;3.90;;;;;;;7.50;86.91;98263.85;24473;1336;3026051;-63
2023/01/06 07:10:18;;;;;;;7.60;4.20;;;;;;;7.49;86.34;98265.64;24484;1343;3052879;-64
2023/01/06 07:12:46;;;;;;;9.60;5.50;;;;;;;7.16;87.69;98263.48;24413;1336;3026214;-65
2023/01/06 07:15:16;;;;;;;7.80;4.50;;;;;;;7.01;88.29;98272.80;24429;1335;3049983;-64
2023/01/06 07:17:45;;;;;;;9.70;4.90;;;;;;;6.92;88.03;98274.75;24453;1327;3028973;-63
2023/01/06 07:20:14;;;;;;;6.80;3.50;;;;;;;6.81;88.86;98275.67;24427;1337;3052463;-64
2023/01/06 07:22:43;;;;;;;8.50;3.40;;;;;;;7.19;88.51;98269.73;24465;1333;3027885;-65
2023/01/06 07:25:12;;;;;;;6.60;3.60;;;;;;;7.54;87.25;98279.25;24445;1327;3052385;-65
2023/01/06 07:27:42;;;;;;;7.40;3.50;;;;;;;7.45;87.32;98274.27;24381;1343;3028313;-66
2023/01/06 07:30:11;;;;;;;6.90;4.50;;;;;;;7.37;87.39;98278.27;24553;1326;3028896;-64
2023/01/06 07:32:41;;;;;;;9.00;5.40;;;;;;;7.02;88.48;98286.52;24567;1333;3052741;-64
2023/01/06 07:35:10;;;;;;;10.40;5.30;;;;;;;6.88;88.63;98287.42;24417;1333;3028857;-65
2023/01/06 07:37:39;;;;;;;9.90;6.00;;;;;;;6.61;90.14;98296.27;24479;1334;3026533;-67
2023/01/06 07:40:09;;;;;;;9.50;4.50;;;;;;;6.51;91.22;98295.66;24454;1327;3052422;-65
2023/01/06 07:42:41;;;;;;;5.50;3.40;;;;;;;7.16;89.86;98296.39;24476;1327;3027533;-63
2023/01/06 07:45:10;;;;;;;6.70;3.90;;;;;;;7.53;87.09;98296.92;24409;1334;3028738;-66
2023/01/06 07:47:39;;;;;;;8.00;3.90;;;;;;;7.46;86.99;98299.84;24498;1327;3052740;-65
2023/01/06 07:50:08;;;;;;;7.30;4.70;;;;;;;7.47;87.09;98298.92;24474;1326;3025849;-65
2023/01/06 07:52:38;;;;;;;10.70;4.30;;;;;;;7.19;87.64;98305.77;24465;1323;3055914;-66
2023/01/06 07:55:07;;;;;;;8.00;4.30;;;;;;;7.01;88.46;98304.37;24522;1334;3025762;-66
2023/01/06 07:57:36;;;;;;;7.50;4.70;;;;;;;6.76;89.15;98310.61;24465;1334;3049487;-64
2023/01/06 08:00:06;;;;;;;5.60;2.80;;;;;;;6.57;90.91;98315.63;24476;1327;3026655;-65
2023/01/06 08:02:42;;;;;;;4.60;2.50;;;;;;;7.08;89.69;98320.25;24443;1331;3053087;-63
2023/01/06 08:05:11;;;;;;;5.60;3.00;;;;;;;7.24;88.27;98322.67;24454;1334;3028229;-63
2023/01/06 08:07:40;;;;;;;5.80;3.50;;;;;;;7.43;87.73;98317.09;24542;1333;3025655;-65
2023/01/06 08:10:09;;;;;;;6.60;4.50;;;;;;;7.19;87.61;98323.02;24603;1326;3051595;-63
2023/01/06 08:12:38;;;;;;;10.70;4.50;;;;;;;7.02;88.58;98327.98;24451;1319;3025237;-63
2023/01/06 08:15:07;;;;;;;7.70;4.30;;;;;;;6.87;89.04;98333.75;24466;1333;3056756;-64
2023/01/06 08:17:38;;;;;;;6.80;4.70;;;;;;;6.81;89.16;98334.48;24448;1326;3028545;-63
2023/01/06 08:20:08;;;;;;;5.40;2.90;;;;;;;6.68;89.69;98346.13;24449;1326;3028014;-64
2023/01/06 08:22:37;;;;;;;5.90;2.90;;;;;;;6.98;89.32;98357.28;24474;1335;3055549;-63
2023/01/06 08:25:07;;;;;;;7.90;3.00;;;;;;;7.33;87.26;98344.05;24452;1334;3028139;-65
2023/01/06 08:27:36;;;;;;;5.00;3.30;;;;;;;7.30;87.38;98349.27;24531;1343;3049268;-64
2023/01/06 08:30:06;;;;;;;7.20;4.10;;;;;;;7.28;87.28;98344.20;24502;1340;3027321;-63
2023/01/06 08:32:35;;;;;;;5.30;3.40;;;;;;;7.10;88.16;98346.92;24504;1333;3068257;-62
2023/01/06 08:35:05;;;;;;;5.40;3.40;;;;;;;6.99;88.29;98355.27;24490;1325;3026076;-63
2023/01/06 08:37:34;;;;;;;6.30;3.50;;;;;;;6.86;89.37;98351.43;24528;1333;3048209;-65
2023/01/06 08:40:04;;;;;;;3.30;1.80;;;;;;;6.73;89.86;98363.56;24601;1333;3025838;-67
2023/01/06 08:42:33;;;;;;;3.10;1.90;;;;;;;7.23;88.30;98360.02;24589;1336;3026385;-63
2023/01/06 08:45:02;;;;;;;4.70;2.60;;;;;;;7.46;87.37;98357.84;24523;1327;3026110;-64
2023/01/06 18:03:32;;;;;;;4.20;1.90;;;;;;;-4.64;60.86;99542.52;30805;1339;3013544;-63
2023/01/06 18:06:17;;;;;;;3.90;2.10;;;;;;;-4.67;58.76;99541.98;24542;1341;3068045;-66
2023/01/06 18:08:49;;;;;;;5.40;2.10;;;;;;;-4.88;57.68;99526.22;24419;1337;3050066;-66
2023/01/06 18:11:34;;;;;;;7.60;2.20;;;;;;;-5.01;57.11;99543.77;24510;1344;3024895;-65
2023/01/06 18:14:17;;;;;;;5.50;2.40;;;;;;;-5.11;58.43;99546.30;24482;1329;3053117;-67
2023/01/06 18:16:45;;;;;;;3.50;2.40;;;;;;;-5.14;60.19;99536.72;23909;1334;4652580;-65
2023/01/06 18:19:18;;;;;;;5.10;2.50;;;;;;;-5.09;61.15;99554.34;24601;1326;3055419;-65
2023/01/06 18:21:48;;;;;;;4.50;2.50;;;;;;;-5.22;61.93;99549.66;24582;1327;3027550;-63
2023/01/06 18:24:20;;;;;;;8.00;2.80;;;;;;;-5.25;62.99;99559.05;24550;1337;3026847;-70
2023/01/06 18:26:53;;;;;;;8.50;3.00;;;;;;;-5.15;63.39;99573.44;24561;1327;3026542;-67
2023/01/06 18:29:42;;;;;;;5.50;2.40;;;;;;;-5.22;64.09;99569.64;24551;1316;3027138;-66
2023/01/06 18:32:31;;;;;;;5.10;2.50;;;;;;;-5.23;64.66;99578.35;24521;1334;3048639;-64
2023/01/06 18:35:02;;;;;;;6.40;2.70;;;;;;;-5.21;65.21;99584.52;24524;1339;3070613;-64
2023/01/06 18:37:35;;;;;;;6.10;2.80;;;;;;;-5.42;66.40;99585.75;24495;1343;3050256;-63
2023/01/06 18:40:07;;;;;;;5.80;2.40;;;;;;;-5.42;67.35;99590.02;24615;1333;3028830;-65
2023/01/06 18:42:37;;;;;;;9.80;2.70;;;;;;;-5.49;66.89;99602.45;24536;1334;3027136;-65
2023/01/06 18:45:12;;;;;;;4.90;2.50;;;;;;;-5.71;67.19;99604.67;24553;1334;3026879;-63
2023/01/06 18:47:41;;;;;;;;;;;;;;;-5.76;67.97;99592.02;24569;1334;3052799;-61
2023/01/06 18:50:53;;;;;;;5.60;2.30;;;;;;;-5.61;67.71;99602.19;24529;1332;3026713;-63
2023/01/06 18:53:30;;;;;;;4.40;2.70;;;;;;;-5.57;67.22;99607.49;24438;1334;3053150;-66
2023/01/06 18:56:03;;;;;;;5.60;2.60;;;;;;;-5.72;66.63;99612.70;24483;1332;3051596;-64
2023/01/06 18:58:55;;;;;;;8.00;2.50;;;;;;;-5.88;67.12;99621.61;24610;1326;3025603;-64
2023/01/06 19:01:26;;;;;;;7.50;3.50;;;;;;;-6.02;67.51;99620.14;24575;1333;3048559;-68
2023/01/06 19:04:08;;;;;;;7.70;2.90;;;;;;;-6.10;67.29;99629.30;24548;1332;3026619;-66
2023/01/06 19:06:42;;;;;;;8.90;3.20;;;;;;;-6.15;67.82;99637.94;24578;1336;3050372;-64
2023/01/06 19:09:25;;;;;;;11.30;3.80;;;;;;;-6.04;67.54;99638.39;24530;1327;3056989;-66
2023/01/06 19:12:16;;;;;;;4.70;2.80;;;;;;;-6.05;67.18;99651.16;24555;1337;3052155;-63
2023/01/06 19:14:48;;;;;;;6.30;2.70;;;;;;;-5.91;67.30;99658.95;24535;1333;3054762;-63
2023/01/06 19:17:26;;;;;;;6.40;3.10;;;;;;;-5.86;66.64;99664.27;24607;1343;3025894;-65
2023/01/06 19:19:55;;;;;;;7.00;2.80;;;;;;;-5.77;66.34;99669.64;24604;1335;3052416;-67
2023/01/06 19:22:26;;;;;;;6.80;3.40;;;;;;;-5.96;66.67;99667.79;24623;1335;3024933;-66
2023/01/06 19:25:16;;;;;;;;;;;;;;;-6.24;67.12;99670.42;24465;1331;3067498;-68
2023/01/06 19:27:49;;;;;;;5.30;2.70;;;;;;;-6.22;68.04;99672.15;24585;1340;3049479;-63
2023/01/06 19:30:21;;;;;;;7.30;3.30;;;;;;;-6.18;68.28;99678.66;24538;1340;3026663;-72
2023/01/06 19:32:50;;;;;;;8.80;3.10;;;;;;;-6.00;67.58;99688.56;24560;1330;3025934;-65
2023/01/06 19:35:25;;;;;;;11.20;3.70;;;;;;;-5.99;67.79;99694.89;24497;1333;3024915;-61
2023/01/06 19:38:21;;;;;;;8.60;3.20;;;;;;;-6.20;68.33;99702.17;24598;1334;3055201;-66
2023/01/06 19:40:49;;;;;;;9.00;2.90;;;;;;;-6.40;69.32;99710.64;24540;1341;3052779;-67
2023/01/06 19:43:33;;;;;;;4.80;2.30;;;;;;;-6.43;70.26;99712.15;24616;1334;3026497;-65
2023/01/06 19:46:03;;;;;;;;;;;;;;;-6.34;69.58;99718.39;24445;1347;3057116;-64
2023/01/06 19:48:39;;;;;;;11.00;3.30;;;;;;;-6.57;70.24;99732.09;24529;1327;3025959;-65
2023/01/06 19:51:15;;;;;;;4.80;2.60;;;;;;;-6.33;70.60;99726.59;24483;1334;3052222;-67
2023/01/06 19:53:50;;;;;;;6.90;3.30;;;;;;;-6.49;70.25;99738.82;24531;1339;3050384;-70
2023/01/06 19:56:25;;;;;;;8.40;4.30;;;;;;;-6.54;70.91;99740.13;24565;1333;3026145;-68
2023/01/06 19:58:59;;;;;;;12.30;4.20;;;;;;;-6.51;70.80;99742.05;24582;1334;3048282;-68
2023/01/06 20:01:32;;;;;;;10.70;4.30;;;;;;;-6.47;70.69;99747.21;24534;1340;3068459;-65
2023/01/06 20:04:02;;;;;;;9.30;4.00;;;;;;;-6.52;70.58;99761.96;24532;1332;3026165;-67
2023/01/06 20:06:31;;;;;;;8.10;3.20;;;;;;;-6.61;70.44;99767.64;24681;1333;3025975;-69
2023/01/06 20:09:00;;;;;;;9.00;3.30;;;;;;;-6.76;70.30;99771.86;24612;1340;3068689;-68
2023/01/06 20:11:29;;;;;;;5.10;3.30;;;;;;;-6.87;70.19;99775.63;24533;1334;3029561;-68
2023/01/06 20:13:58;;;;;;;7.60;3.40;;;;;;;-6.79;70.73;99782.73;24636;1332;3048837;-68
2023/01/06 20:16:27;;;;;;;7.10;3.40;;;;;;;-6.85;71.13;99788.27;24523;1334;3024762;-70
2023/01/06 20:18:56;;;;;;;7.30;3.60;;;;;;;-6.75;70.73;99792.84;24610;1332;3051853;-67
2023/01/06 20:21:25;;;;;;;9.70;3.80;;;;;;;-6.77;70.88;99784.64;24571;1339;3025407;-63
2023/01/06 20:23:55;;;;;;;8.60;3.60;;;;;;;-6.75;70.56;99788.75;24570;1327;3050653;-68
2023/01/06 20:26:25;;;;;;;7.30;3.40;;;;;;;-6.78;70.73;99791.95;24617;1326;3025202;-65
2023/01/06 20:28:54;;;;;;;12.00;3.90;;;;;;;-6.84;71.10;99793.39;24535;1340;3025440;-65
2023/01/06 20:31:23;;;;;;;9.70;3.40;;;;;;;-6.82;71.03;99795.46;24572;1334;3027867;-69
2023/01/06 20:33:52;;;;;;;7.10;3.20;;;;;;;-6.83;70.60;99800.90;24617;1333;3052633;-69
2023/01/06 20:36:22;;;;;;;6.20;2.70;;;;;;;-6.98;70.42;99802.37;24566;1344;3025867;-71
2023/01/06 20:38:51;;;;;;;6.60;3.60;;;;;;;-7.05;70.97;99812.65;24553;1332;3028512;-70
2023/01/06 20:41:20;;;;;;;11.30;3.40;;;;;;;-7.10;70.63;99813.77;24567;1326;3025882;-69
2023/01/06 20:43:52;;;;;;;9.00;3.80;;;;;;;-7.24;71.45;99814.55;24570;1335;3049267;-70
2023/01/06 20:46:21;;;;;;;7.20;3.60;;;;;;;-7.20;71.81;99809.67;24526;1335;3025916;-64
2023/01/06 20:48:50;;;;;;;8.00;3.90;;;;;;;-7.03;72.42;99812.52;24557;1334;3051711;-70
2023/01/06 20:51:19;;;;;;;6.90;4.00;;;;;;;-6.81;70.94;99815.75;24614;1328;3026054;-69
2023/01/06 20:53:48;;;;;;;11.10;3.70;;;;;;;-6.74;70.79;99817.55;24500;1334;3049365;-65
2023/01/06 20:56:19;;;;;;;10.90;3.90;;;;;;;-6.72;70.39;99821.68;24549;1332;3025852;-67
2023/01/06 20:58:48;;;;;;;10.00;4.30;;;;;;;-6.71;70.11;99823.40;24500;1340;3027409;-69
2023/01/06 21:01:18;;;;;;;8.60;4.40;;;;;;;-6.88;69.52;99821.44;24580;1339;3025904;-66
2023/01/06 21:03:47;;;;;;;11.50;4.20;;;;;;;-6.93;68.18;99824.42;24581;1334;3025478;-68
2023/01/06 21:06:16;;;;;;;9.00;3.60;;;;;;;-7.17;65.35;99830.84;24591;1334;3048668;-67
2023/01/06 21:08:46;;;;;;;6.70;3.50;;;;;;;-7.28;64.96;99826.58;24569;1333;3027625;-69
2023/01/06 21:11:15;;;;;;;9.00;3.50;;;;;;;-7.38;64.68;99835.08;24616;1335;3025434;-68
2023/01/06 21:13:44;;;;;;;8.80;3.80;;;;;;;-7.36;65.07;99833.40;24544;1336;3048924;-69
2023/01/06 21:16:14;;;;;;;9.30;4.00;;;;;;;-7.44;65.23;99841.79;24599;1333;3025629;-65